KKLS

Southwest Washington Regional Airport

Kelso, Washington, USA
METAR KKLS 231056Z AUTO 14005KT 10SM OVC110 06/04 A3019 RMK AO2 SLP227 T00610044
Observed Flight Rules
Jan-23 @ 10:56 UTC (57 minutes ago) Visual Flight Rules
Wind Visibility Clouds
140° at 5 knots 10 miles
  • Overcast at 11,000' AGL
Temperatures Readings
Current 6°C / 43°F
Dewpoint 4°C / 39°F
Humidity 87%
Altimeter 30.19" Hg
Pressure 1022.7 hPa
Elevation 5
METAR KKLS 231056Z AUTO 14005KT 10SM OVC110 06/04 A3019 RMK AO2 SLP227 T00610044
Observed Flight Rules
Jan-23 @ 10:56 UTC
(57 minutes ago)
VFR
Wind Visibility
140° at 5 knots 10 miles
Clouds
  • Overcast at 11,000' AGL
Temperature Dewpoint
6°C / 43°F 4°C / 39°F
Humidity Altimeter Pressure
87% 30.19" Hg 1022.7 hPa